Time;durP1;ratioP1;P1;durP2;ratioP2;P2;SDS_P1;SDS_P2;PMS_P1;PMS_P2;Temp;Humidity;BMP_temperature;BMP_pressure;BME280_temperature;BME280_humidity;BME280_pressure;Samples;Min_cycle;Max_cycle;Signal;HPM_P1;HPM_P2
2021/07/06 00:01:11;;;;;;;4.65;1.60;;;25.30;99.90;;;;;;20964443;22;20320;-69
2021/07/06 00:11:15;;;;;;;9.43;0.95;;;25.50;99.90;;;;;;20819608;28;20709;-69
2021/07/06 00:21:20;;;;;;;1.83;1.23;;;25.60;99.90;;;;;;20821503;28;20241;-68
2021/07/06 00:31:24;;;;;;;0.40;0.40;;;25.40;99.90;;;;;;20819804;28;20312;-69
2021/07/06 00:41:30;;;;;;;10.43;1.65;;;25.20;99.90;;;;;;20819579;28;20190;-70
2021/07/06 00:51:34;;;;;;;1.40;1.27;;;25.40;99.90;;;;;;20819153;28;20228;-69
2021/07/06 01:01:38;;;;;;;2.33;2.03;;;25.50;99.90;;;;;;20820039;28;20313;-68
2021/07/06 01:11:42;;;;;;;1.40;0.93;;;25.50;99.90;;;;;;20819594;28;20316;-69
2021/07/06 01:21:47;;;;;;;0.77;0.77;;;25.60;99.90;;;;;;20836288;28;20190;-69
2021/07/06 01:31:52;;;;;;;2.22;1.58;;;25.20;99.90;;;;;;20846468;28;20218;-69
2021/07/06 01:41:56;;;;;;;2.05;1.77;;;25.20;99.90;;;;;;20833667;28;20550;-70
2021/07/06 01:52:01;;;;;;;1.73;0.80;;;25.00;99.90;;;;;;20832766;28;20225;-70
2021/07/06 02:02:05;;;;;;;0.28;0.22;;;25.00;99.90;;;;;;20832230;28;20313;-70
2021/07/06 02:12:11;;;;;;;0.80;0.52;;;24.90;99.90;;;;;;20831148;28;20230;-69
2021/07/06 02:22:14;;;;;;;1.08;1.00;;;24.90;99.90;;;;;;20830321;28;20272;-68
2021/07/06 02:32:19;;;;;;;1.40;0.90;;;24.70;99.90;;;;;;20829344;28;20236;-69
2021/07/06 02:42:23;;;;;;;1.05;0.75;;;24.80;99.90;;;;;;20828995;28;20202;-70
2021/07/06 02:52:29;;;;;;;2.42;1.38;;;24.70;99.90;;;;;;20828737;28;20332;-70
2021/07/06 03:02:32;;;;;;;3.15;2.50;;;24.70;99.90;;;;;;20826394;28;20703;-69
2021/07/06 03:12:37;;;;;;;1.20;0.63;;;24.60;99.90;;;;;;20826275;28;20230;-70
2021/07/06 03:22:42;;;;;;;1.60;0.98;;;24.70;99.90;;;;;;20835471;28;20232;-70
2021/07/06 03:32:47;;;;;;;5.20;0.40;;;24.60;99.90;;;;;;20837168;28;20229;-69
2021/07/06 03:42:52;;;;;;;0.28;0.28;;;24.60;99.90;;;;;;20824225;28;20206;-69
2021/07/06 03:52:58;;;;;;;1.75;0.52;;;24.70;99.90;;;;;;20823965;28;20221;-69
2021/07/06 04:03:02;;;;;;;0.25;0.25;;;24.40;99.90;;;;;;20822827;28;20226;-69
2021/07/06 04:13:07;;;;;;;1.75;1.20;;;24.40;99.90;;;;;;20819710;28;20240;-69
2021/07/06 04:23:11;;;;;;;1.38;1.30;;;24.30;99.90;;;;;;20821416;28;20285;-69
2021/07/06 04:33:16;;;;;;;0.57;0.40;;;23.90;99.90;;;;;;20818900;28;20301;-69
2021/07/06 04:43:19;;;;;;;0.75;0.75;;;23.80;99.90;;;;;;20819602;28;20201;-69
2021/07/06 04:53:24;;;;;;;1.48;0.75;;;23.80;99.90;;;;;;20816548;28;20233;-69
2021/07/06 05:03:29;;;;;;;2.58;0.73;;;24.00;99.90;;;;;;20816973;28;20313;-69
2021/07/06 05:13:36;;;;;;;0.20;0.20;;;24.00;99.90;;;;;;20813836;28;20190;-68
2021/07/06 05:23:40;;;;;;;1.27;1.13;;;24.10;99.90;;;;;;20816973;28;20252;-69
2021/07/06 05:33:45;;;;;;;0.73;0.65;;;24.40;99.90;;;;;;20815376;28;20229;-69
2021/07/06 05:43:49;;;;;;;4.68;2.25;;;24.50;99.90;;;;;;20815712;28;20276;-69
2021/07/06 05:53:54;;;;;;;3.25;0.65;;;24.90;99.90;;;;;;20832040;28;20198;-70
2021/07/06 06:03:57;;;;;;;3.33;1.98;;;25.40;99.90;;;;;;20816790;28;20226;-68
2021/07/06 06:14:03;;;;;;;0.57;0.52;;;25.40;99.90;;;;;;20828026;28;20213;-68
2021/07/06 06:24:06;;;;;;;1.05;0.65;;;25.60;99.90;;;;;;20824436;28;20229;-67
2021/07/06 06:34:12;;;;;;;2.45;1.52;;;25.60;99.90;;;;;;20826719;28;20248;-68
2021/07/06 06:44:15;;;;;;;2.30;1.17;;;25.60;99.90;;;;;;20825283;28;20242;-69
2021/07/06 06:54:20;;;;;;;0.32;0.22;;;25.80;99.90;;;;;;20824162;28;20206;-69
2021/07/06 07:04:24;;;;;;;4.45;0.77;;;26.10;99.90;;;;;;20823668;28;20237;-70
2021/07/06 07:14:29;;;;;;;0.60;0.47;;;26.30;99.90;;;;;;20822638;28;20281;-68
2021/07/06 07:24:33;;;;;;;0.70;0.70;;;26.70;99.90;;;;;;20819831;28;20249;-68
2021/07/06 07:34:38;;;;;;;1.02;0.60;;;26.80;99.90;;;;;;20820584;28;20204;-69
2021/07/06 07:44:43;;;;;;;0.77;0.63;;;26.90;99.90;;;;;;20781808;28;20308;-67
2021/07/06 07:54:48;;;;;;;2.58;1.25;;;26.80;99.90;;;;;;20818746;28;20205;-73
2021/07/06 08:04:52;;;;;;;1.30;1.23;;;26.90;99.90;;;;;;20741840;28;20231;-68
2021/07/06 08:14:58;;;;;;;2.15;0.98;;;26.90;99.90;;;;;;20752564;28;20577;-70
2021/07/06 08:25:02;;;;;;;0.82;0.75;;;27.10;99.90;;;;;;20734181;28;20292;-68
2021/07/06 08:35:07;;;;;;;1.33;1.05;;;27.20;99.90;;;;;;20778462;28;20314;-69
2021/07/06 08:45:12;;;;;;;1.15;0.98;;;27.30;99.90;;;;;;20817197;28;20230;-69
2021/07/06 08:55:19;;;;;;;2.05;1.55;;;27.60;99.90;;;;;;20817136;28;20281;-69
2021/07/06 09:05:23;;;;;;;1.15;0.77;;;27.80;99.90;;;;;;20813430;28;20254;-70
2021/07/06 09:15:30;;;;;;;0.93;0.88;;;27.90;99.90;;;;;;20815109;28;20221;-67
2021/07/06 09:25:34;;;;;;;7.82;1.52;;;28.40;99.90;;;;;;20815353;28;20703;-67
2021/07/06 09:35:42;;;;;;;3.60;1.73;;;28.40;99.90;;;;;;20815263;28;20293;-69
2021/07/06 09:45:51;;;;;;;0.40;0.40;;;28.30;99.90;;;;;;20830115;28;20304;-67
2021/07/06 09:55:58;;;;;;;0.50;0.50;;;27.70;99.90;;;;;;20830030;28;20578;-67
2021/07/06 10:06:01;;;;;;;7.10;2.35;;;28.10;99.90;;;;;;20829742;28;20250;-66
2021/07/06 10:16:07;;;;;;;0.98;0.88;;;28.30;99.90;;;;;;20830066;28;20216;-67
2021/07/06 10:26:15;;;;;;;1.45;0.98;;;28.50;99.90;;;;;;20850144;28;20699;-67
2021/07/06 10:36:36;;;;;;;1.15;1.05;;;28.60;99.90;;;;;;20838578;28;20686;-67
2021/07/06 10:46:48;;;;;;;1.20;1.10;;;29.00;99.90;;;;;;20825619;28;20589;-66
2021/07/06 10:56:55;;;;;;;1.33;1.20;;;29.30;99.90;;;;;;20824561;28;20300;-67
2021/07/06 11:06:59;;;;;;;1.02;0.90;;;29.40;99.90;;;;;;20822097;28;20316;-67
2021/07/06 11:17:04;;;;;;;2.25;1.30;;;30.00;99.90;;;;;;20824081;28;20352;-68
2021/07/06 11:27:08;;;;;;;2.05;1.33;;;30.20;99.90;;;;;;20822503;28;20660;-69
2021/07/06 11:37:14;;;;;;;2.45;1.58;;;30.60;99.90;;;;;;20819301;28;20213;-71
2021/07/06 11:47:18;;;;;;;0.80;0.70;;;32.00;99.90;;;;;;20819852;28;20667;-70
2021/07/06 11:57:25;;;;;;;0.73;0.32;;;32.20;99.90;;;;;;20820685;28;20194;-69
2021/07/06 12:07:28;;;;;;;5.22;0.68;;;32.50;99.90;;;;;;20817343;28;20561;-68
2021/07/06 12:17:34;;;;;;;1.50;0.35;;;32.80;99.90;;;;;;20818802;28;20202;-68
2021/07/06 12:27:38;;;;;;;1.95;0.68;;;33.40;99.90;;;;;;20817052;28;20221;-69
2021/07/06 12:37:43;;;;;;;0.90;0.70;;;33.00;99.90;;;;;;20815299;28;20285;-68
2021/07/06 12:47:48;;;;;;;1.50;0.93;;;33.60;99.90;;;;;;20816267;28;20222;-66
2021/07/06 12:58:07;;;;;;;0.65;0.35;;;33.50;99.90;;;;;;20816785;28;20284;-67
2021/07/06 13:08:19;;;;;;;1.75;1.63;;;33.60;99.90;;;;;;20817044;28;20233;-64
2021/07/06 13:18:37;;;;;;;1.20;0.82;;;33.30;99.90;;;;;;20815860;28;20288;-68
2021/07/06 13:28:42;;;;;;;2.85;0.82;;;33.80;99.90;;;;;;20814052;28;20248;-70
2021/07/06 13:38:47;;;;;;;1.02;0.82;;;33.10;99.90;;;;;;20814987;28;20648;-70
2021/07/06 13:48:52;;;;;;;2.97;1.42;;;32.50;99.90;;;;;;20813017;28;20218;-69
2021/07/06 13:58:57;;;;;;;1.98;1.63;;;33.60;99.90;;;;;;20811528;28;20209;-69
2021/07/06 14:09:00;;;;;;;1.10;0.65;;;32.70;99.90;;;;;;20809778;28;20786;-68
2021/07/06 14:19:05;;;;;;;7.35;0.90;;;32.50;99.90;;;;;;20811830;28;20200;-68
2021/07/06 14:29:10;;;;;;;2.40;1.40;;;33.30;99.90;;;;;;20817157;28;20754;-68
2021/07/06 14:39:17;;;;;;;1.52;1.42;;;31.10;99.90;;;;;;20824672;28;20210;-66
2021/07/06 14:49:21;;;;;;;5.55;1.20;;;30.20;99.90;;;;;;20829039;28;20226;-67
2021/07/06 14:59:27;;;;;;;1.02;0.93;;;31.90;99.90;;;;;;20830666;28;20221;-68
2021/07/06 15:09:30;;;;;;;1.08;1.00;;;33.20;99.90;;;;;;20820665;28;20232;-69
2021/07/06 15:19:37;;;;;;;1.23;1.10;;;33.70;99.90;;;;;;20820761;28;20656;-68
2021/07/06 15:29:41;;;;;;;2.65;1.13;;;33.50;99.90;;;;;;20820685;28;20236;-67
2021/07/06 15:39:46;;;;;;;0.95;0.90;;;32.70;99.90;;;;;;20818745;28;20205;-68
2021/07/06 15:49:50;;;;;;;2.22;1.38;;;32.80;99.90;;;;;;20818632;28;20230;-72
2021/07/06 15:59:56;;;;;;;1.48;1.08;;;34.40;99.90;;;;;;20815662;28;20679;-70
2021/07/06 16:10:00;;;;;;;2.20;1.30;;;34.00;99.90;;;;;;20815094;28;20283;-67
2021/07/06 16:20:07;;;;;;;1.30;0.88;;;33.10;99.90;;;;;;20815505;28;20276;-68
2021/07/06 16:30:12;;;;;;;0.73;0.68;;;33.70;99.90;;;;;;20814140;28;20253;-68
2021/07/06 16:40:19;;;;;;;6.68;1.17;;;32.90;99.90;;;;;;20813467;28;20202;-68
2021/07/06 16:50:23;;;;;;;2.00;1.13;;;32.20;99.90;;;;;;20813091;28;20249;-68
2021/07/06 18:13:13;;;;;;;0.98;0.88;;;27.30;99.90;;;;;;20681107;28;20651;-68
2021/07/06 18:23:20;;;;;;;1.27;1.17;;;26.60;99.90;;;;;;20825021;28;20209;-68
2021/07/06 18:33:23;;;;;;;7.07;1.52;;;26.60;99.90;;;;;;20824507;28;20226;-66
2021/07/06 18:43:29;;;;;;;2.35;2.10;;;26.50;99.90;;;;;;20823678;28;20240;-66
2021/07/06 18:53:33;;;;;;;1.05;0.80;;;26.40;99.90;;;;;;20821788;28;20237;-67
2021/07/06 19:03:38;;;;;;;1.13;1.02;;;26.50;99.90;;;;;;20823130;28;20272;-66
2021/07/06 19:13:47;;;;;;;0.77;0.50;;;26.20;99.90;;;;;;20822589;28;20405;-69
2021/07/06 19:34:15;;;;;;;5.13;1.00;;;26.10;99.90;;;;;;20821719;28;20245;-67
2021/07/06 19:44:22;;;;;;;2.60;0.70;;;26.10;99.90;;;;;;20820760;28;20208;-69
2021/07/06 19:54:26;;;;;;;2.17;1.13;;;25.90;99.90;;;;;;20822512;28;20248;-68
2021/07/06 20:04:34;;;;;;;3.60;1.00;;;25.60;99.90;;;;;;20822502;28;20257;-68
2021/07/06 20:14:39;;;;;;;1.17;0.60;;;25.80;99.90;;;;;;20822892;28;20401;-68
2021/07/06 20:24:44;;;;;;;0.68;0.35;;;25.80;99.90;;;;;;20819508;28;20202;-68
2021/07/06 20:34:48;;;;;;;1.10;1.05;;;25.90;99.90;;;;;;20819375;28;20264;-69
2021/07/06 20:44:53;;;;;;;1.30;1.05;;;25.50;99.90;;;;;;20818478;28;20232;-66
2021/07/06 20:54:57;;;;;;;0.75;0.75;;;25.70;99.90;;;;;;20793299;28;20246;-67
2021/07/06 21:05:02;;;;;;;0.80;0.65;;;25.60;99.90;;;;;;20767902;28;20237;-67
2021/07/06 21:15:08;;;;;;;1.15;0.90;;;25.70;99.90;;;;;;20814547;28;20595;-68
2021/07/06 21:25:14;;;;;;;10.00;3.50;;;25.40;99.90;;;;;;20817041;28;20198;-67
2021/07/06 21:35:18;;;;;;;2.25;1.80;;;25.10;99.90;;;;;;20820704;28;20218;-68
2021/07/06 21:45:23;;;;;;;5.15;1.00;;;25.10;99.90;;;;;;20833228;28;20682;-67
2021/07/06 21:55:28;;;;;;;3.10;1.02;;;25.10;99.90;;;;;;20832023;28;20218;-67
2021/07/06 22:05:33;;;;;;;1.30;0.85;;;25.00;99.90;;;;;;20831221;28;20305;-69
2021/07/06 22:15:36;;;;;;;7.13;1.08;;;24.80;99.90;;;;;;20829524;28;20313;-67
2021/07/06 22:25:42;;;;;;;2.15;1.48;;;24.40;99.90;;;;;;20845212;28;20194;-67
2021/07/06 22:35:46;;;;;;;0.90;0.90;;;24.30;99.90;;;;;;20828933;28;20229;-67
2021/07/06 22:45:51;;;;;;;0.77;0.40;;;24.10;99.90;;;;;;20827922;28;20194;-68
2021/07/06 22:55:55;;;;;;;0.88;0.88;;;24.00;99.90;;;;;;20828049;28;20233;-68
2021/07/06 23:06:00;;;;;;;1.38;0.90;;;23.70;99.90;;;;;;20827301;28;20257;-68
2021/07/06 23:16:04;;;;;;;1.55;1.00;;;23.40;99.90;;;;;;20826977;28;20245;-67
2021/07/06 23:26:09;;;;;;;0.70;0.50;;;22.80;99.90;;;;;;20825981;28;20252;-67
2021/07/06 23:36:13;;;;;;;0.20;0.20;;;22.80;99.90;;;;;;20824105;28;20276;-67
2021/07/06 23:46:19;;;;;;;0.20;0.00;;;22.60;99.90;;;;;;20839016;28;20598;-68
2021/07/06 23:56:22;;;;;;;0.20;0.10;;;22.40;99.90;;;;;;20829418;28;20297;-68
